• Join FlightAware (Why Join?)
  • Login
  • US Flag 
10:48PM EST


 

Airport Tracker/Info


-or-


 

Live Flight TrackerFlight Track Log ✈ FLG4262 ✈ 10-Nov-2013 ✈ KBGM - KDTW

Flight Track Log - Related Links

Times and Time Zones

All times are in EST time to prevent confusion due to time zone crossing. See the FLG4262 flight status page for this flight to view local times or setup timezone preferences in your user account.

Time Position Orientation Groundspeed Altitude Reporting Facility
EST Latitude Longitude Course Direction KTS MPH feet Rate Location/Type
05:33PM 42.2564 -76.1158 294° West 167 192 4,200  Level Cleveland Center
05:34PM 42.2742 -76.1836 290° West 179 206 4,200  Level Cleveland Center
05:36PM 42.2769 -76.3084 272° West  Level Estimated
05:37PM 42.2240 -76.4916 273° West  Level Estimated
05:37PM 42.3478 -76.4256 272° West 275 316 4,200  Level Cleveland Center
05:38PM 42.3778 -76.5308 291° West 296 341 15,900 6,532 Climbing Cleveland Center
05:39PM 42.4072 -76.6381 290° West 305 351 17,700 1,728 Climbing Cleveland Center
05:40PM 42.4356 -76.7472 289° West 308 354 19,500 1,488 Climbing Cleveland Center
05:41PM 42.4658 -76.8556 291° West 308 354 20,800 1,306 Climbing Cleveland Center
05:42PM 42.5017 -76.9911 290° West 317 365 22,200 1,306 Climbing Cleveland Center
05:43PM 42.5314 -77.1044 290° West 319 367 23,500 1,065 Climbing Cleveland Center
05:44PM 42.5617 -77.2172 290° West 319 367 24,400 871 Climbing Cleveland Center
05:45PM 42.5908 -77.3311 289° West 320 368 25,300 774 Climbing Cleveland Center
05:46PM 42.6244 -77.4561 290° West 318 366 26,000 629 Climbing Cleveland Center
05:47PM 42.6544 -77.5719 289° West 324 373 26,600 532 Climbing Cleveland Center
05:48PM 42.6833 -77.6892 289° West 327 376 27,100 532 Climbing Cleveland Center
05:49PM 42.7147 -77.8039 290° West 328 377 27,700 435 Climbing Cleveland Center
05:50PM 42.7389 -77.9247 285° West 329 379 28,000 -484 Climbing Cleveland Center
05:51PM 42.7389 -78.0739 270° West 330 380 26,700 -968 Descending Cleveland Center
05:52PM 42.7381 -78.1989 270° West 331 381 26,000 -336 Descending Cleveland Center
05:53PM 42.7392 -78.3217 271° West 328 377 26,000  Level Cleveland Center
05:54PM 42.7383 -78.4458 270° West 330 380 26,000  Level Cleveland Center
05:55PM 42.7378 -78.5692 270° West 328 377 26,000  Level Cleveland Center
05:56PM 42.7381 -78.7169 270° West 327 376 26,000  Level Cleveland Center
05:57PM 42.7375 -78.8397 270° West 328 377 26,000  Level Cleveland Center
05:59PM 42.7375 -78.9600 270° West 319 367 26,000  Level Cleveland Center
06:00PM 42.7367 -79.0811 270° West 322 371 26,000  Level Cleveland Center
06:01PM 42.7353 -79.2019 269° West 321 369 26,000  Level Cleveland Center
06:02PM 42.7347 -79.3244 270° West 326 375 26,000  Level Cleveland Center
06:03PM 42.7325 -79.4742 269° West 331 381 26,000  Level Cleveland Center
06:04PM 42.7306 -79.5994 269° West 330 380 26,000  Level Cleveland Center
06:05PM 42.7283 -79.7233 269° West 329 379 26,000  Level Cleveland Center
06:06PM 42.7275 -79.8456 270° West 324 373 26,000  Level Cleveland Center
06:07PM 42.7256 -79.9703 269° West 329 379 26,000  Level Cleveland Center
06:08PM 42.7200 -80.1147 267° West 328 377 26,000  Level Cleveland Center
06:09PM 42.7178 -80.2411 269° West 331 381 26,000  Level Cleveland Center
06:10PM 42.7161 -80.3678 269° West 332 382 26,000  Level Cleveland Center
06:11PM 42.7133 -80.4947 268° West 333 383 26,000  Level Cleveland Center
06:12PM 42.7103 -80.6233 268° West 337 388 26,000 -242 Level Cleveland Center
06:13PM 42.7086 -80.7528 269° West 342 394 25,500 -823 Descending Cleveland Center
06:14PM 42.7036 -80.9028 267° West 340 391 24,300 -1,016 Descending Cleveland Center
06:15PM 42.6883 -81.0297 261° West 338 389 23,400 -871 Descending Cleveland Center
06:16PM 42.6742 -81.1592 262° West 344 396 22,500 -871 Descending Cleveland Center
06:17PM 42.6594 -81.2892 261° West 347 399 21,600 -871 Descending Cleveland Center
06:18PM 42.6442 -81.4194 261° West 347 399 20,700 -871 Descending Cleveland Center
06:19PM 42.6294 -81.5492 261° West 346 398 19,800 -871 Descending Cleveland Center
06:20PM 42.6147 -81.6753 261° West 339 390 18,900 -871 Descending Cleveland Center
06:21PM 42.5992 -81.8058 261° West 340 391 18,000 -871 Descending Cleveland Center
06:22PM 42.5833 -81.9328 260° West 343 395 17,100 -1,056 Descending Cleveland Center
06:23PM 42.5653 -82.0864 261° West 344 396 15,800 -1,104 Descending Cleveland Center
06:24PM 42.5483 -82.2111 260° West 339 390 14,800 -1,016 Descending Cleveland Center
06:25PM 42.5333 -82.3339 261° West 334 384 13,700 -1,215 Descending Cleveland Center
06:26PM 42.5297 -82.3825 264° West 334 384 13,200 -1,286 Descending Cleveland Center
06:26PM 42.5222 -82.4322 258° West 335 386 12,800 -800 Descending Cleveland Center
06:26PM 42.5183 -82.4572 258° West 333 383 12,600 -585 Descending Cleveland Center
06:27PM 42.4964 -82.5814 257° West 337 388 12,000 -941 Descending Cleveland Center
06:28PM 42.4503 -82.6778 237° Southwest 346 398 11,000 -1,161 Descending Cleveland Center
06:29PM 42.4406 -82.6917 227° Southwest 352 405 10,800 -492 Descending Cleveland Center
06:29PM 42.4042 -82.7678 237° Southwest 268 308 10,500 -484 Descending Cleveland Center
06:30PM 42.3883 -82.7958 233° Southwest 287 330 10,300 -1,393 Descending Cleveland Center
06:30PM 42.3675 -82.8392 237° Southwest 236 272 9,200 -1,839 Descending Cleveland Center
06:31PM 42.3506 -82.8681 232° Southwest 248 285 8,400 -1,869 Descending Cleveland Center
06:31PM 42.3328 -82.9108 241° Southwest 229 264 7,300 -1,935 Descending Cleveland Center
06:32PM 42.3353 -82.9436 276° West 230 265 6,400 -1,279 Descending Cleveland Center
06:32PM 42.3544 -82.9869 301° West 203 234 6,000 -387 Descending Cleveland Center
06:33PM 42.3672 -83.0044 315° West 204 235 6,000  Level Cleveland Center
06:33PM 42.3986 -83.0411 319° Northwest 197 227 6,000 -194 Level Cleveland Center
06:34PM 42.4061 -83.0558 305° West 199 229 5,800 -984 Descending Cleveland Center
06:34PM 42.4075 -83.1186 272° West 198 228 5,000 -774 Descending Cleveland Center
06:35PM 42.3983 -83.1458 245° Southwest 206 237 5,000 -358 Level Cleveland Center
06:35PM 42.3769 -83.1878 235° Southwest 186 214 4,600 -677 Descending Cleveland Center
06:36PM 42.3681 -83.2031 232° Southwest 189 217 4,300 -873 Descending Cleveland Center
06:36PM 42.3481 -83.2375 232° Southwest 195 224 3,800 -952 Descending Cleveland Center
06:37PM 42.3303 -83.2494 206° Southwest 191 220 3,300 -1,164 Descending Cleveland Center
06:37PM 42.2969 -83.2756 210° Southwest 188 216 2,500 -1,065 Descending Cleveland Center
06:38PM 42.2847 -83.2844 208° Southwest 191 220 2,200 -750 Descending Cleveland Center
06:38PM 42.2636 -83.3019 212° Southwest 136 157 1,800 -677 Descending Cleveland Center
06:39PM 42.2503 -83.3089 201° Southwest 158 182 1,500 -787 Descending Cleveland Center
06:39PM 42.2303 -83.3253 211° Southwest 133 153 1,000 -290 Descending Cleveland Center
06:40PM 42.2117 -83.3369 205° Southwest 149 171 1,200 375 Climbing Cleveland Center
06:42PM 42.2000 -83.3500 217° Southwest  Level FlightAware Approximate
06:49PM 42.2124 -83.3534 217° Southwest  Level Estimated